sensor_id;sensor_type;location;lat;lon;timestamp;temperature;humidity
38726;DHT22;24474;48.906;8.808;2023-03-01T00:01:12;-1.00;99.90
38726;DHT22;24474;48.906;8.808;2023-03-01T00:03:38;-1.00;99.90
38726;DHT22;24474;48.906;8.808;2023-03-01T00:06:06;-1.00;99.90
38726;DHT22;24474;48.906;8.808;2023-03-01T00:08:32;-1.10;99.90
38726;DHT22;24474;48.906;8.808;2023-03-01T00:13:31;-1.00;99.90
38726;DHT22;24474;48.906;8.808;2023-03-01T00:15:56;-1.10;99.90
38726;DHT22;24474;48.906;8.808;2023-03-01T00:18:22;-1.10;99.90
38726;DHT22;24474;48.906;8.808;2023-03-01T00:20:52;-1.10;99.90
38726;DHT22;24474;48.906;8.808;2023-03-01T00:23:18;-1.10;99.90
38726;DHT22;24474;48.906;8.808;2023-03-01T00:25:43;-1.10;99.90
38726;DHT22;24474;48.906;8.808;2023-03-01T00:28:09;-1.10;99.90
38726;DHT22;24474;48.906;8.808;2023-03-01T00:30:36;-1.10;99.90
38726;DHT22;24474;48.906;8.808;2023-03-01T00:33:01;-1.20;99.90
38726;DHT22;24474;48.906;8.808;2023-03-01T00:35:27;-1.20;99.90
38726;DHT22;24474;48.906;8.808;2023-03-01T00:37:53;-1.20;99.90
38726;DHT22;24474;48.906;8.808;2023-03-01T00:40:27;-1.20;99.90
38726;DHT22;24474;48.906;8.808;2023-03-01T00:42:53;-1.20;99.90
38726;DHT22;24474;48.906;8.808;2023-03-01T00:45:19;-1.20;99.90
38726;DHT22;24474;48.906;8.808;2023-03-01T00:47:45;-1.30;99.90
38726;DHT22;24474;48.906;8.808;2023-03-01T00:50:11;-1.30;99.90
38726;DHT22;24474;48.906;8.808;2023-03-01T00:52:37;-1.30;99.90
38726;DHT22;24474;48.906;8.808;2023-03-01T00:55:04;-1.30;99.90
38726;DHT22;24474;48.906;8.808;2023-03-01T00:57:30;-1.30;99.90
38726;DHT22;24474;48.906;8.808;2023-03-01T00:59:56;-1.30;99.90
38726;DHT22;24474;48.906;8.808;2023-03-01T01:02:26;-1.30;99.90
38726;DHT22;24474;48.906;8.808;2023-03-01T01:04:51;-1.30;99.90
38726;DHT22;24474;48.906;8.808;2023-03-01T01:07:18;-1.30;99.90
38726;DHT22;24474;48.906;8.808;2023-03-01T01:09:45;-1.40;99.90
38726;DHT22;24474;48.906;8.808;2023-03-01T01:12:12;-1.40;99.90
38726;DHT22;24474;48.906;8.808;2023-03-01T01:14:38;-1.40;99.90
38726;DHT22;24474;48.906;8.808;2023-03-01T01:17:03;-1.40;99.90
38726;DHT22;24474;48.906;8.808;2023-03-01T01:19:29;-1.40;99.90
38726;DHT22;24474;48.906;8.808;2023-03-01T01:21:55;-1.40;99.90
38726;DHT22;24474;48.906;8.808;2023-03-01T01:24:21;-1.50;99.90
38726;DHT22;24474;48.906;8.808;2023-03-01T01:26:46;-1.40;99.90
38726;DHT22;24474;48.906;8.808;2023-03-01T01:29:14;-1.40;99.90
38726;DHT22;24474;48.906;8.808;2023-03-01T01:31:41;-1.50;99.90
38726;DHT22;24474;48.906;8.808;2023-03-01T01:34:09;-1.50;99.90
38726;DHT22;24474;48.906;8.808;2023-03-01T01:36:37;-1.50;99.90
38726;DHT22;24474;48.906;8.808;2023-03-01T01:39:03;-1.50;99.90
38726;DHT22;24474;48.906;8.808;2023-03-01T01:41:30;-1.50;99.90
38726;DHT22;24474;48.906;8.808;2023-03-01T01:44:17;-1.50;99.90
38726;DHT22;24474;48.906;8.808;2023-03-01T01:52:21;-1.60;99.90
38726;DHT22;24474;48.906;8.808;2023-03-01T01:54:55;-1.50;99.90
38726;DHT22;24474;48.906;8.808;2023-03-01T02:00:05;-1.60;99.90
38726;DHT22;24474;48.906;8.808;2023-03-01T02:02:31;-1.60;99.90
38726;DHT22;24474;48.906;8.808;2023-03-01T02:05:17;-1.60;99.90
38726;DHT22;24474;48.906;8.808;2023-03-01T02:07:43;-1.60;99.90
38726;DHT22;24474;48.906;8.808;2023-03-01T02:10:10;-1.60;99.90
38726;DHT22;24474;48.906;8.808;2023-03-01T02:12:36;-1.70;99.90
38726;DHT22;24474;48.906;8.808;2023-03-01T02:15:02;-1.70;99.90
38726;DHT22;24474;48.906;8.808;2023-03-01T02:17:28;-1.80;99.90
38726;DHT22;24474;48.906;8.808;2023-03-01T02:22:37;-1.70;99.90
38726;DHT22;24474;48.906;8.808;2023-03-01T02:28:31;-1.80;99.90
38726;DHT22;24474;48.906;8.808;2023-03-01T02:30:57;-1.80;99.90
38726;DHT22;24474;48.906;8.808;2023-03-01T02:33:41;-1.90;99.90
38726;DHT22;24474;48.906;8.808;2023-03-01T02:36:12;-1.90;99.90
38726;DHT22;24474;48.906;8.808;2023-03-01T02:38:40;-1.80;99.90
38726;DHT22;24474;48.906;8.808;2023-03-01T02:41:07;-1.90;99.90
38726;DHT22;24474;48.906;8.808;2023-03-01T02:43:34;-1.90;99.90
38726;DHT22;24474;48.906;8.808;2023-03-01T02:46:08;-1.90;99.90
38726;DHT22;24474;48.906;8.808;2023-03-01T02:48:44;-1.90;99.90
38726;DHT22;24474;48.906;8.808;2023-03-01T02:51:34;-1.90;99.90
38726;DHT22;24474;48.906;8.808;2023-03-01T02:56:35;-1.90;99.90
38726;DHT22;24474;48.906;8.808;2023-03-01T02:59:01;-1.90;99.90
38726;DHT22;24474;48.906;8.808;2023-03-01T03:01:27;-1.90;99.90
38726;DHT22;24474;48.906;8.808;2023-03-01T03:04:06;-2.00;99.90
38726;DHT22;24474;48.906;8.808;2023-03-01T03:06:32;-1.90;99.90
38726;DHT22;24474;48.906;8.808;2023-03-01T03:08:58;-1.90;99.90
38726;DHT22;24474;48.906;8.808;2023-03-01T03:11:25;-1.90;99.90
38726;DHT22;24474;48.906;8.808;2023-03-01T03:13:51;-1.90;99.90
38726;DHT22;24474;48.906;8.808;2023-03-01T03:16:17;-1.90;99.90
38726;DHT22;24474;48.906;8.808;2023-03-01T03:18:43;-1.90;99.90
38726;DHT22;24474;48.906;8.808;2023-03-01T03:21:11;-1.90;99.90
38726;DHT22;24474;48.906;8.808;2023-03-01T03:23:37;-1.90;99.90
38726;DHT22;24474;48.906;8.808;2023-03-01T03:26:04;-1.90;99.90
38726;DHT22;24474;48.906;8.808;2023-03-01T03:28:31;-1.90;99.90
38726;DHT22;24474;48.906;8.808;2023-03-01T03:30:57;-1.90;99.90
38726;DHT22;24474;48.906;8.808;2023-03-01T03:33:24;-1.90;99.90
38726;DHT22;24474;48.906;8.808;2023-03-01T03:35:50;-1.80;99.90
38726;DHT22;24474;48.906;8.808;2023-03-01T03:38:19;-1.80;99.90
38726;DHT22;24474;48.906;8.808;2023-03-01T03:40:50;-1.80;99.90
38726;DHT22;24474;48.906;8.808;2023-03-01T03:43:18;-1.80;99.90
38726;DHT22;24474;48.906;8.808;2023-03-01T03:45:45;-1.80;99.90
38726;DHT22;24474;48.906;8.808;2023-03-01T03:48:11;-1.80;99.90
38726;DHT22;24474;48.906;8.808;2023-03-01T03:50:38;-1.80;99.90
38726;DHT22;24474;48.906;8.808;2023-03-01T03:53:06;-1.70;99.90
38726;DHT22;24474;48.906;8.808;2023-03-01T03:55:32;-1.70;99.90
38726;DHT22;24474;48.906;8.808;2023-03-01T03:58:00;-1.70;99.90
38726;DHT22;24474;48.906;8.808;2023-03-01T04:00:33;-1.70;99.90
38726;DHT22;24474;48.906;8.808;2023-03-01T04:02:59;-1.70;99.90
38726;DHT22;24474;48.906;8.808;2023-03-01T04:05:26;-1.70;99.90
38726;DHT22;24474;48.906;8.808;2023-03-01T04:07:52;-1.70;99.90
38726;DHT22;24474;48.906;8.808;2023-03-01T04:10:38;-1.70;99.90
38726;DHT22;24474;48.906;8.808;2023-03-01T04:13:05;-1.70;99.90
38726;DHT22;24474;48.906;8.808;2023-03-01T04:15:31;-1.70;99.90
38726;DHT22;24474;48.906;8.808;2023-03-01T04:17:59;-1.70;99.90
38726;DHT22;24474;48.906;8.808;2023-03-01T04:20:30;-1.70;99.90
38726;DHT22;24474;48.906;8.808;2023-03-01T04:22:59;-1.70;99.90
38726;DHT22;24474;48.906;8.808;2023-03-01T04:25:26;-1.60;99.90
38726;DHT22;24474;48.906;8.808;2023-03-01T04:27:51;-1.60;99.90
38726;DHT22;24474;48.906;8.808;2023-03-01T04:30:17;-1.60;99.90
38726;DHT22;24474;48.906;8.808;2023-03-01T04:32:43;-1.60;99.90
38726;DHT22;24474;48.906;8.808;2023-03-01T04:35:08;-1.60;99.90
38726;DHT22;24474;48.906;8.808;2023-03-01T04:37:34;-1.60;99.90
38726;DHT22;24474;48.906;8.808;2023-03-01T04:40:01;-1.60;99.90
38726;DHT22;24474;48.906;8.808;2023-03-01T04:42:34;-1.60;99.90
38726;DHT22;24474;48.906;8.808;2023-03-01T04:44:59;-1.60;99.90
38726;DHT22;24474;48.906;8.808;2023-03-01T04:47:25;-1.70;99.90
38726;DHT22;24474;48.906;8.808;2023-03-01T04:49:50;-1.70;99.90
38726;DHT22;24474;48.906;8.808;2023-03-01T04:52:16;-1.70;99.90
38726;DHT22;24474;48.906;8.808;2023-03-01T04:54:41;-1.70;99.90
38726;DHT22;24474;48.906;8.808;2023-03-01T04:57:08;-1.70;99.90
38726;DHT22;24474;48.906;8.808;2023-03-01T04:59:34;-1.70;99.90
38726;DHT22;24474;48.906;8.808;2023-03-01T05:02:01;-1.70;99.90
38726;DHT22;24474;48.906;8.808;2023-03-01T05:04:27;-1.70;99.90
38726;DHT22;24474;48.906;8.808;2023-03-01T05:06:52;-1.70;99.90
38726;DHT22;24474;48.906;8.808;2023-03-01T05:09:19;-1.70;99.90
38726;DHT22;24474;48.906;8.808;2023-03-01T05:11:44;-1.70;99.90
38726;DHT22;24474;48.906;8.808;2023-03-01T05:14:10;-1.70;99.90
38726;DHT22;24474;48.906;8.808;2023-03-01T05:16:36;-1.70;99.90
38726;DHT22;24474;48.906;8.808;2023-03-01T05:19:03;-1.70;99.90
38726;DHT22;24474;48.906;8.808;2023-03-01T05:21:37;-1.70;99.90
38726;DHT22;24474;48.906;8.808;2023-03-01T05:24:24;-1.70;99.90
38726;DHT22;24474;48.906;8.808;2023-03-01T05:26:50;-1.70;99.90
38726;DHT22;24474;48.906;8.808;2023-03-01T05:29:21;-1.70;99.90
38726;DHT22;24474;48.906;8.808;2023-03-01T05:31:52;-1.70;99.90
38726;DHT22;24474;48.906;8.808;2023-03-01T05:34:19;-1.70;99.90
38726;DHT22;24474;48.906;8.808;2023-03-01T05:36:48;-1.70;99.90
38726;DHT22;24474;48.906;8.808;2023-03-01T05:39:13;-1.70;99.90
38726;DHT22;24474;48.906;8.808;2023-03-01T05:41:41;-1.80;99.90
38726;DHT22;24474;48.906;8.808;2023-03-01T05:44:07;-1.80;99.90
38726;DHT22;24474;48.906;8.808;2023-03-01T05:46:33;-1.80;99.90
38726;DHT22;24474;48.906;8.808;2023-03-01T05:48:58;-1.80;99.90
38726;DHT22;24474;48.906;8.808;2023-03-01T05:51:25;-1.80;99.90
38726;DHT22;24474;48.906;8.808;2023-03-01T05:53:51;-1.80;99.90
38726;DHT22;24474;48.906;8.808;2023-03-01T05:56:17;-1.80;99.90
38726;DHT22;24474;48.906;8.808;2023-03-01T05:58:43;-1.90;99.90
38726;DHT22;24474;48.906;8.808;2023-03-01T06:01:13;-1.90;99.90
38726;DHT22;24474;48.906;8.808;2023-03-01T06:03:38;-1.90;99.90
38726;DHT22;24474;48.906;8.808;2023-03-01T06:06:04;-1.90;99.90
38726;DHT22;24474;48.906;8.808;2023-03-01T06:08:30;-1.90;99.90
38726;DHT22;24474;48.906;8.808;2023-03-01T06:10:56;-2.00;99.90
38726;DHT22;24474;48.906;8.808;2023-03-01T06:13:22;-1.90;99.90
38726;DHT22;24474;48.906;8.808;2023-03-01T06:15:48;-1.90;99.90
38726;DHT22;24474;48.906;8.808;2023-03-01T06:18:14;-1.90;99.90
38726;DHT22;24474;48.906;8.808;2023-03-01T06:20:40;-1.90;99.90
38726;DHT22;24474;48.906;8.808;2023-03-01T06:23:06;-1.90;99.90
38726;DHT22;24474;48.906;8.808;2023-03-01T06:25:32;-1.90;99.90
38726;DHT22;24474;48.906;8.808;2023-03-01T06:27:58;-1.90;99.90
38726;DHT22;24474;48.906;8.808;2023-03-01T06:30:25;-1.90;99.90
38726;DHT22;24474;48.906;8.808;2023-03-01T06:32:51;-1.90;99.90
38726;DHT22;24474;48.906;8.808;2023-03-01T06:35:18;-1.80;99.90
38726;DHT22;24474;48.906;8.808;2023-03-01T06:37:46;-1.80;99.90
38726;DHT22;24474;48.906;8.808;2023-03-01T06:40:12;-1.80;99.90
38726;DHT22;24474;48.906;8.808;2023-03-01T06:42:41;-1.80;99.90
38726;DHT22;24474;48.906;8.808;2023-03-01T06:45:07;-1.80;99.90
38726;DHT22;24474;48.906;8.808;2023-03-01T06:47:33;-1.80;99.90
38726;DHT22;24474;48.906;8.808;2023-03-01T06:50:00;-1.80;99.90
38726;DHT22;24474;48.906;8.808;2023-03-01T06:52:27;-1.80;99.90
38726;DHT22;24474;48.906;8.808;2023-03-01T06:54:53;-1.80;99.90
38726;DHT22;24474;48.906;8.808;2023-03-01T06:57:18;-1.70;99.90
38726;DHT22;24474;48.906;8.808;2023-03-01T06:59:44;-1.70;99.90
38726;DHT22;24474;48.906;8.808;2023-03-01T07:02:11;-1.70;99.90
38726;DHT22;24474;48.906;8.808;2023-03-01T07:04:37;-1.70;99.90
38726;DHT22;24474;48.906;8.808;2023-03-01T07:07:03;-1.60;99.90
38726;DHT22;24474;48.906;8.808;2023-03-01T07:09:28;-1.60;99.90
38726;DHT22;24474;48.906;8.808;2023-03-01T07:11:54;-1.60;99.90
38726;DHT22;24474;48.906;8.808;2023-03-01T07:14:21;-1.60;99.90
38726;DHT22;24474;48.906;8.808;2023-03-01T07:16:47;-1.60;99.90
38726;DHT22;24474;48.906;8.808;2023-03-01T07:19:13;-1.60;99.90
38726;DHT22;24474;48.906;8.808;2023-03-01T07:21:38;-1.60;99.90
38726;DHT22;24474;48.906;8.808;2023-03-01T07:24:06;-1.50;99.90
38726;DHT22;24474;48.906;8.808;2023-03-01T07:26:32;-1.50;99.90
38726;DHT22;24474;48.906;8.808;2023-03-01T07:29:05;-1.50;99.90
38726;DHT22;24474;48.906;8.808;2023-03-01T07:31:31;-1.50;99.90
38726;DHT22;24474;48.906;8.808;2023-03-01T07:33:57;-1.50;99.90
38726;DHT22;24474;48.906;8.808;2023-03-01T07:36:24;-1.50;99.90
38726;DHT22;24474;48.906;8.808;2023-03-01T07:38:50;-1.40;99.90
38726;DHT22;24474;48.906;8.808;2023-03-01T07:41:16;-1.40;99.90
38726;DHT22;24474;48.906;8.808;2023-03-01T07:43:42;-1.40;99.90
38726;DHT22;24474;48.906;8.808;2023-03-01T07:46:11;-1.40;99.90
38726;DHT22;24474;48.906;8.808;2023-03-01T07:48:37;-1.40;99.90
38726;DHT22;24474;48.906;8.808;2023-03-01T07:51:04;-1.30;99.90
38726;DHT22;24474;48.906;8.808;2023-03-01T07:53:31;-1.30;99.90
38726;DHT22;24474;48.906;8.808;2023-03-01T07:56:07;-1.30;99.90
38726;DHT22;24474;48.906;8.808;2023-03-01T07:58:40;-1.30;99.90
38726;DHT22;24474;48.906;8.808;2023-03-01T08:01:09;-1.20;99.90
38726;DHT22;24474;48.906;8.808;2023-03-01T08:03:35;-1.20;99.90
38726;DHT22;24474;48.906;8.808;2023-03-01T08:06:02;-1.20;99.90
38726;DHT22;24474;48.906;8.808;2023-03-01T08:08:29;-1.20;99.90
38726;DHT22;24474;48.906;8.808;2023-03-01T08:10:58;-1.10;99.90
38726;DHT22;24474;48.906;8.808;2023-03-01T08:13:25;-1.10;99.90
38726;DHT22;24474;48.906;8.808;2023-03-01T08:16:00;-1.10;99.90
38726;DHT22;24474;48.906;8.808;2023-03-01T08:18:26;-1.00;99.90
38726;DHT22;24474;48.906;8.808;2023-03-01T08:20:53;-1.00;99.90
38726;DHT22;24474;48.906;8.808;2023-03-01T08:23:19;-0.90;99.90
38726;DHT22;24474;48.906;8.808;2023-03-01T08:25:46;-0.90;99.90
38726;DHT22;24474;48.906;8.808;2023-03-01T08:28:14;-0.80;99.90
38726;DHT22;24474;48.906;8.808;2023-03-01T08:30:41;-0.80;99.90
38726;DHT22;24474;48.906;8.808;2023-03-01T08:33:07;-0.80;99.90
38726;DHT22;24474;48.906;8.808;2023-03-01T08:35:32;-0.80;99.90
38726;DHT22;24474;48.906;8.808;2023-03-01T08:37:58;-0.70;99.90
38726;DHT22;24474;48.906;8.808;2023-03-01T08:40:23;-0.70;99.90
38726;DHT22;24474;48.906;8.808;2023-03-01T08:42:49;-0.60;99.90
38726;DHT22;24474;48.906;8.808;2023-03-01T08:45:17;-0.60;99.90
38726;DHT22;24474;48.906;8.808;2023-03-01T08:47:44;-0.60;99.90
38726;DHT22;24474;48.906;8.808;2023-03-01T08:50:10;-0.50;99.90
38726;DHT22;24474;48.906;8.808;2023-03-01T08:52:36;-0.50;99.90
38726;DHT22;24474;48.906;8.808;2023-03-01T08:55:02;-0.50;99.90
38726;DHT22;24474;48.906;8.808;2023-03-01T08:57:27;-0.40;99.90
38726;DHT22;24474;48.906;8.808;2023-03-01T08:59:54;-0.40;99.90
38726;DHT22;24474;48.906;8.808;2023-03-01T09:02:21;-0.30;99.90
38726;DHT22;24474;48.906;8.808;2023-03-01T09:04:48;-0.20;99.90
38726;DHT22;24474;48.906;8.808;2023-03-01T09:07:16;-0.30;99.90
38726;DHT22;24474;48.906;8.808;2023-03-01T09:09:41;-0.20;99.90
38726;DHT22;24474;48.906;8.808;2023-03-01T09:12:08;-0.10;99.90
38726;DHT22;24474;48.906;8.808;2023-03-01T09:14:34;-0.10;99.90
38726;DHT22;24474;48.906;8.808;2023-03-01T09:17:00;0.00;99.90
38726;DHT22;24474;48.906;8.808;2023-03-01T09:19:29;0.00;99.90
38726;DHT22;24474;48.906;8.808;2023-03-01T09:21:55;0.00;99.90
38726;DHT22;24474;48.906;8.808;2023-03-01T09:24:24;0.10;99.90
38726;DHT22;24474;48.906;8.808;2023-03-01T09:26:53;0.10;99.90
38726;DHT22;24474;48.906;8.808;2023-03-01T09:29:21;0.20;99.90
38726;DHT22;24474;48.906;8.808;2023-03-01T09:31:49;0.20;99.90
38726;DHT22;24474;48.906;8.808;2023-03-01T09:34:15;0.30;99.90
38726;DHT22;24474;48.906;8.808;2023-03-01T09:36:45;0.30;99.90
38726;DHT22;24474;48.906;8.808;2023-03-01T09:39:11;0.40;99.90
38726;DHT22;24474;48.906;8.808;2023-03-01T09:42:00;0.50;99.90
38726;DHT22;24474;48.906;8.808;2023-03-01T09:47:36;0.60;99.90
38726;DHT22;24474;48.906;8.808;2023-03-01T09:50:16;0.60;99.90
38726;DHT22;24474;48.906;8.808;2023-03-01T09:52:54;0.70;99.90
38726;DHT22;24474;48.906;8.808;2023-03-01T09:55:44;0.80;99.90
38726;DHT22;24474;48.906;8.808;2023-03-01T09:58:50;0.90;99.90
38726;DHT22;24474;48.906;8.808;2023-03-01T10:09:40;1.20;99.90
38726;DHT22;24474;48.906;8.808;2023-03-01T10:12:15;1.20;99.90
38726;DHT22;24474;48.906;8.808;2023-03-01T10:18:00;1.40;99.90
38726;DHT22;24474;48.906;8.808;2023-03-01T10:20:46;1.50;99.90
38726;DHT22;24474;48.906;8.808;2023-03-01T10:23:14;1.60;99.90
38726;DHT22;24474;48.906;8.808;2023-03-01T10:31:19;1.80;99.90
38726;DHT22;24474;48.906;8.808;2023-03-01T10:33:48;1.90;99.90
38726;DHT22;24474;48.906;8.808;2023-03-01T10:36:20;1.90;99.90
38726;DHT22;24474;48.906;8.808;2023-03-01T10:38:55;2.10;99.90
38726;DHT22;24474;48.906;8.808;2023-03-01T10:41:24;2.20;99.90
38726;DHT22;24474;48.906;8.808;2023-03-01T10:43:57;2.20;99.90
38726;DHT22;24474;48.906;8.808;2023-03-01T10:49:15;2.20;99.90
38726;DHT22;24474;48.906;8.808;2023-03-01T10:51:43;2.20;99.90
38726;DHT22;24474;48.906;8.808;2023-03-01T10:56:56;2.40;99.90
38726;DHT22;24474;48.906;8.808;2023-03-01T10:59:35;2.40;99.90
38726;DHT22;24474;48.906;8.808;2023-03-01T11:04:35;2.50;99.90
38726;DHT22;24474;48.906;8.808;2023-03-01T11:07:02;2.60;99.90
38726;DHT22;24474;48.906;8.808;2023-03-01T11:09:33;2.70;99.90
38726;DHT22;24474;48.906;8.808;2023-03-01T11:12:15;2.60;99.90
38726;DHT22;24474;48.906;8.808;2023-03-01T11:14:54;2.70;99.90
38726;DHT22;24474;48.906;8.808;2023-03-01T11:20:34;2.80;99.90
38726;DHT22;24474;48.906;8.808;2023-03-01T11:23:12;2.80;99.90
38726;DHT22;24474;48.906;8.808;2023-03-01T11:25:46;2.90;99.90
38726;DHT22;24474;48.906;8.808;2023-03-01T11:28:17;3.00;99.90
38726;DHT22;24474;48.906;8.808;2023-03-01T11:31:03;3.00;99.90
38726;DHT22;24474;48.906;8.808;2023-03-01T11:39:40;3.20;99.90
38726;DHT22;24474;48.906;8.808;2023-03-01T11:45:10;3.20;99.90
38726;DHT22;24474;48.906;8.808;2023-03-01T11:47:59;3.30;99.90
38726;DHT22;24474;48.906;8.808;2023-03-01T11:50:47;3.30;99.90
38726;DHT22;24474;48.906;8.808;2023-03-01T12:08:25;3.50;99.90
38726;DHT22;24474;48.906;8.808;2023-03-01T12:14:15;3.60;99.90
38726;DHT22;24474;48.906;8.808;2023-03-01T12:17:25;3.80;99.90
38726;DHT22;24474;48.906;8.808;2023-03-01T12:25:58;4.00;99.90
38726;DHT22;24474;48.906;8.808;2023-03-01T12:31:59;4.10;99.90
38726;DHT22;24474;48.906;8.808;2023-03-01T12:49:17;4.60;99.90
38726;DHT22;24474;48.906;8.808;2023-03-01T12:51:38;4.60;99.90
38726;DHT22;24474;48.906;8.808;2023-03-01T12:54:31;4.70;99.90
38726;DHT22;24474;48.906;8.808;2023-03-01T12:57:09;4.70;99.90
38726;DHT22;24474;48.906;8.808;2023-03-01T13:03:19;4.80;99.90
38726;DHT22;24474;48.906;8.808;2023-03-01T13:06:19;4.80;99.90
38726;DHT22;24474;48.906;8.808;2023-03-01T13:11:58;4.90;99.90
38726;DHT22;24474;48.906;8.808;2023-03-01T13:14:36;4.90;99.90
38726;DHT22;24474;48.906;8.808;2023-03-01T13:17:03;4.90;99.90
38726;DHT22;24474;48.906;8.808;2023-03-01T13:19:32;4.90;99.90
38726;DHT22;24474;48.906;8.808;2023-03-01T13:21:58;5.00;99.90
38726;DHT22;24474;48.906;8.808;2023-03-01T13:24:40;5.10;99.90
38726;DHT22;24474;48.906;8.808;2023-03-01T13:29:56;5.10;99.90
38726;DHT22;24474;48.906;8.808;2023-03-01T13:32:23;5.10;99.90
38726;DHT22;24474;48.906;8.808;2023-03-01T13:34:52;5.20;99.90
38726;DHT22;24474;48.906;8.808;2023-03-01T13:37:24;5.30;99.90
38726;DHT22;24474;48.906;8.808;2023-03-01T13:39:51;5.20;99.90
38726;DHT22;24474;48.906;8.808;2023-03-01T13:42:38;5.20;99.90
38726;DHT22;24474;48.906;8.808;2023-03-01T13:45:21;5.20;99.90
38726;DHT22;24474;48.906;8.808;2023-03-01T13:47:52;5.20;99.90
38726;DHT22;24474;48.906;8.808;2023-03-01T13:50:25;5.30;99.90
38726;DHT22;24474;48.906;8.808;2023-03-01T13:52:59;5.30;99.90
38726;DHT22;24474;48.906;8.808;2023-03-01T13:55:55;5.30;99.90
38726;DHT22;24474;48.906;8.808;2023-03-01T13:58:23;5.40;99.90
38726;DHT22;24474;48.906;8.808;2023-03-01T14:03:23;5.40;99.90
38726;DHT22;24474;48.906;8.808;2023-03-01T14:06:08;5.40;99.90
38726;DHT22;24474;48.906;8.808;2023-03-01T14:08:36;5.50;99.90
38726;DHT22;24474;48.906;8.808;2023-03-01T14:16:58;5.50;99.90
38726;DHT22;24474;48.906;8.808;2023-03-01T14:19:30;5.50;99.90
38726;DHT22;24474;48.906;8.808;2023-03-01T14:25:17;5.50;99.90
38726;DHT22;24474;48.906;8.808;2023-03-01T14:27:44;5.60;99.90
38726;DHT22;24474;48.906;8.808;2023-03-01T14:32:53;5.60;99.90
38726;DHT22;24474;48.906;8.808;2023-03-01T14:35:25;5.50;99.90
38726;DHT22;24474;48.906;8.808;2023-03-01T14:37:50;5.60;99.90
38726;DHT22;24474;48.906;8.808;2023-03-01T14:40:29;5.60;99.90
38726;DHT22;24474;48.906;8.808;2023-03-01T14:42:59;5.70;99.90
38726;DHT22;24474;48.906;8.808;2023-03-01T14:45:30;5.70;99.90
38726;DHT22;24474;48.906;8.808;2023-03-01T14:48:00;5.60;99.90
38726;DHT22;24474;48.906;8.808;2023-03-01T14:50:31;5.60;99.90
38726;DHT22;24474;48.906;8.808;2023-03-01T14:53:00;5.60;99.90
38726;DHT22;24474;48.906;8.808;2023-03-01T14:55:37;5.70;99.90
38726;DHT22;24474;48.906;8.808;2023-03-01T14:58:05;5.70;99.90
38726;DHT22;24474;48.906;8.808;2023-03-01T15:00:33;5.70;99.90
38726;DHT22;24474;48.906;8.808;2023-03-01T15:03:24;5.70;99.90
38726;DHT22;24474;48.906;8.808;2023-03-01T15:05:50;5.80;99.90
38726;DHT22;24474;48.906;8.808;2023-03-01T15:08:20;5.80;99.90
38726;DHT22;24474;48.906;8.808;2023-03-01T15:11:05;5.80;99.90
38726;DHT22;24474;48.906;8.808;2023-03-01T15:13:43;5.80;99.90
38726;DHT22;24474;48.906;8.808;2023-03-01T15:18:53;5.80;99.90
38726;DHT22;24474;48.906;8.808;2023-03-01T15:21:37;5.80;99.90
38726;DHT22;24474;48.906;8.808;2023-03-01T15:29:25;5.80;99.90
38726;DHT22;24474;48.906;8.808;2023-03-01T15:31:59;5.80;99.90
38726;DHT22;24474;48.906;8.808;2023-03-01T15:34:38;5.80;99.90
38726;DHT22;24474;48.906;8.808;2023-03-01T15:37:32;5.80;99.90
38726;DHT22;24474;48.906;8.808;2023-03-01T15:39:56;5.80;99.90
38726;DHT22;24474;48.906;8.808;2023-03-01T15:47:48;5.80;99.90
38726;DHT22;24474;48.906;8.808;2023-03-01T15:50:37;5.80;99.90
38726;DHT22;24474;48.906;8.808;2023-03-01T15:53:11;5.80;99.90
38726;DHT22;24474;48.906;8.808;2023-03-01T15:55:41;5.80;99.90
38726;DHT22;24474;48.906;8.808;2023-03-01T15:58:28;5.80;99.90
38726;DHT22;24474;48.906;8.808;2023-03-01T16:00:55;5.80;99.90
38726;DHT22;24474;48.906;8.808;2023-03-01T16:03:23;5.80;99.90
38726;DHT22;24474;48.906;8.808;2023-03-01T16:05:50;5.80;99.90
38726;DHT22;24474;48.906;8.808;2023-03-01T16:08:18;5.80;99.90
38726;DHT22;24474;48.906;8.808;2023-03-01T16:10:44;5.70;99.90
38726;DHT22;24474;48.906;8.808;2023-03-01T16:13:12;5.70;99.90
38726;DHT22;24474;48.906;8.808;2023-03-01T16:15:40;5.70;99.90
38726;DHT22;24474;48.906;8.808;2023-03-01T16:18:06;5.60;99.90
38726;DHT22;24474;48.906;8.808;2023-03-01T16:20:33;5.60;99.90
38726;DHT22;24474;48.906;8.808;2023-03-01T16:23:01;5.60;99.90
38726;DHT22;24474;48.906;8.808;2023-03-01T16:25:27;5.50;99.90
38726;DHT22;24474;48.906;8.808;2023-03-01T16:27:53;5.50;99.90
38726;DHT22;24474;48.906;8.808;2023-03-01T16:30:21;5.50;99.90
38726;DHT22;24474;48.906;8.808;2023-03-01T16:32:48;5.50;99.90
38726;DHT22;24474;48.906;8.808;2023-03-01T16:35:17;5.50;99.90
38726;DHT22;24474;48.906;8.808;2023-03-01T16:37:43;5.40;99.90
38726;DHT22;24474;48.906;8.808;2023-03-01T16:42:42;5.40;99.90
38726;DHT22;24474;48.906;8.808;2023-03-01T16:45:09;5.30;99.90
38726;DHT22;24474;48.906;8.808;2023-03-01T16:47:35;5.30;99.90
38726;DHT22;24474;48.906;8.808;2023-03-01T16:50:01;5.30;99.90
38726;DHT22;24474;48.906;8.808;2023-03-01T16:52:27;5.30;99.90
38726;DHT22;24474;48.906;8.808;2023-03-01T16:54:53;5.30;99.90
38726;DHT22;24474;48.906;8.808;2023-03-01T16:57:18;5.20;99.90
38726;DHT22;24474;48.906;8.808;2023-03-01T16:59:44;5.20;99.90
38726;DHT22;24474;48.906;8.808;2023-03-01T17:02:12;5.10;99.90
38726;DHT22;24474;48.906;8.808;2023-03-01T17:04:41;5.10;99.90
38726;DHT22;24474;48.906;8.808;2023-03-01T17:07:07;5.10;99.90
38726;DHT22;24474;48.906;8.808;2023-03-01T17:09:37;5.10;99.90
38726;DHT22;24474;48.906;8.808;2023-03-01T17:12:05;5.10;99.90
38726;DHT22;24474;48.906;8.808;2023-03-01T17:14:31;5.10;99.90
38726;DHT22;24474;48.906;8.808;2023-03-01T17:16:57;5.00;99.90
38726;DHT22;24474;48.906;8.808;2023-03-01T17:19:22;4.90;99.90
38726;DHT22;24474;48.906;8.808;2023-03-01T17:21:48;4.90;99.90
38726;DHT22;24474;48.906;8.808;2023-03-01T17:24:14;4.80;99.90
38726;DHT22;24474;48.906;8.808;2023-03-01T17:26:39;4.80;99.90
38726;DHT22;24474;48.906;8.808;2023-03-01T17:29:10;4.80;99.90
38726;DHT22;24474;48.906;8.808;2023-03-01T17:31:37;4.70;99.90
38726;DHT22;24474;48.906;8.808;2023-03-01T17:34:05;4.70;99.90
38726;DHT22;24474;48.906;8.808;2023-03-01T17:36:31;4.70;99.90
38726;DHT22;24474;48.906;8.808;2023-03-01T17:38:58;4.70;99.90
38726;DHT22;24474;48.906;8.808;2023-03-01T17:41:24;4.60;99.90
38726;DHT22;24474;48.906;8.808;2023-03-01T17:43:51;4.60;99.90
38726;DHT22;24474;48.906;8.808;2023-03-01T17:46:18;4.60;99.90
38726;DHT22;24474;48.906;8.808;2023-03-01T17:48:45;4.60;99.90
38726;DHT22;24474;48.906;8.808;2023-03-01T17:51:14;4.60;99.90
38726;DHT22;24474;48.906;8.808;2023-03-01T17:53:39;4.50;99.90
38726;DHT22;24474;48.906;8.808;2023-03-01T17:56:06;4.50;99.90
38726;DHT22;24474;48.906;8.808;2023-03-01T17:58:32;4.40;99.90
38726;DHT22;24474;48.906;8.808;2023-03-01T18:01:12;4.30;99.90
38726;DHT22;24474;48.906;8.808;2023-03-01T18:03:39;4.30;99.90
38726;DHT22;24474;48.906;8.808;2023-03-01T18:06:17;4.20;99.90
38726;DHT22;24474;48.906;8.808;2023-03-01T18:08:43;4.10;99.90
38726;DHT22;24474;48.906;8.808;2023-03-01T18:11:11;4.00;99.90
38726;DHT22;24474;48.906;8.808;2023-03-01T18:13:36;3.90;99.90